sensor_id;sensor_type;location;lat;lon;timestamp;pressure;altitude;pressure_sealevel;temperature;humidity
20077;BME280;12348;42.710;23.378;2023-07-24T00:00:54;95359.44;;;19.68;100.00
20077;BME280;12348;42.710;23.378;2023-07-24T00:03:21;95356.28;;;19.66;100.00
20077;BME280;12348;42.710;23.378;2023-07-24T00:05:48;95350.09;;;19.56;100.00
20077;BME280;12348;42.710;23.378;2023-07-24T00:08:16;95354.22;;;19.63;100.00
20077;BME280;12348;42.710;23.378;2023-07-24T00:10:42;95352.59;;;19.61;100.00
20077;BME280;12348;42.710;23.378;2023-07-24T00:13:09;95356.47;;;19.48;100.00
20077;BME280;12348;42.710;23.378;2023-07-24T00:15:38;95354.28;;;19.42;100.00
20077;BME280;12348;42.710;23.378;2023-07-24T00:18:05;95356.56;;;19.52;100.00
20077;BME280;12348;42.710;23.378;2023-07-24T00:20:31;95358.75;;;19.58;100.00
20077;BME280;12348;42.710;23.378;2023-07-24T00:22:58;95354.41;;;19.45;100.00
20077;BME280;12348;42.710;23.378;2023-07-24T00:25:27;95353.84;;;19.52;100.00
20077;BME280;12348;42.710;23.378;2023-07-24T00:27:53;95356.00;;;19.46;100.00
20077;BME280;12348;42.710;23.378;2023-07-24T00:30:20;95356.47;;;19.36;100.00
20077;BME280;12348;42.710;23.378;2023-07-24T00:32:47;95355.31;;;19.37;100.00
20077;BME280;12348;42.710;23.378;2023-07-24T00:35:15;95352.09;;;19.23;100.00
20077;BME280;12348;42.710;23.378;2023-07-24T00:37:41;95353.47;;;19.17;100.00
20077;BME280;12348;42.710;23.378;2023-07-24T00:40:09;95353.00;;;19.27;100.00
20077;BME280;12348;42.710;23.378;2023-07-24T00:42:37;95355.53;;;19.32;100.00
20077;BME280;12348;42.710;23.378;2023-07-24T00:45:04;95348.63;;;19.34;100.00
20077;BME280;12348;42.710;23.378;2023-07-24T00:47:32;95345.28;;;19.29;100.00
20077;BME280;12348;42.710;23.378;2023-07-24T00:49:58;95344.94;;;19.30;100.00
20077;BME280;12348;42.710;23.378;2023-07-24T00:52:25;95354.63;;;19.28;100.00
20077;BME280;12348;42.710;23.378;2023-07-24T00:54:53;95349.72;;;19.21;100.00
20077;BME280;12348;42.710;23.378;2023-07-24T00:57:20;95342.75;;;19.11;100.00
20077;BME280;12348;42.710;23.378;2023-07-24T00:59:49;95342.75;;;18.99;100.00
20077;BME280;12348;42.710;23.378;2023-07-24T01:02:16;95342.75;;;18.99;100.00
20077;BME280;12348;42.710;23.378;2023-07-24T01:04:43;95344.69;;;18.99;100.00
20077;BME280;12348;42.710;23.378;2023-07-24T01:07:10;95343.41;;;18.96;100.00
20077;BME280;12348;42.710;23.378;2023-07-24T01:09:37;95340.44;;;18.89;100.00
20077;BME280;12348;42.710;23.378;2023-07-24T01:12:07;95345.88;;;18.77;100.00
20077;BME280;12348;42.710;23.378;2023-07-24T01:14:43;95343.34;;;18.72;100.00
20077;BME280;12348;42.710;23.378;2023-07-24T01:17:15;95336.88;;;18.76;100.00
20077;BME280;12348;42.710;23.378;2023-07-24T01:19:47;95336.81;;;18.64;100.00
20077;BME280;12348;42.710;23.378;2023-07-24T01:22:19;95325.53;;;18.53;100.00
20077;BME280;12348;42.710;23.378;2023-07-24T01:24:57;95342.81;;;18.57;100.00
20077;BME280;12348;42.710;23.378;2023-07-24T01:27:27;95344.16;;;18.51;100.00
20077;BME280;12348;42.710;23.378;2023-07-24T01:29:54;95333.25;;;18.51;100.00
20077;BME280;12348;42.710;23.378;2023-07-24T01:32:21;95326.22;;;18.62;100.00
20077;BME280;12348;42.710;23.378;2023-07-24T01:34:48;95333.97;;;18.60;100.00
20077;BME280;12348;42.710;23.378;2023-07-24T01:37:16;95331.03;;;18.65;100.00
20077;BME280;12348;42.710;23.378;2023-07-24T01:39:44;95328.31;;;18.45;100.00
20077;BME280;12348;42.710;23.378;2023-07-24T01:42:12;95335.38;;;18.46;100.00
20077;BME280;12348;42.710;23.378;2023-07-24T01:44:40;95337.56;;;18.52;100.00
20077;BME280;12348;42.710;23.378;2023-07-24T01:47:07;95349.19;;;18.61;100.00
20077;BME280;12348;42.710;23.378;2023-07-24T01:49:34;95362.00;;;18.49;100.00
20077;BME280;12348;42.710;23.378;2023-07-24T01:52:02;95362.84;;;18.40;100.00
20077;BME280;12348;42.710;23.378;2023-07-24T01:54:28;95357.84;;;18.22;100.00
20077;BME280;12348;42.710;23.378;2023-07-24T01:56:55;95346.25;;;18.12;100.00
20077;BME280;12348;42.710;23.378;2023-07-24T01:59:22;95342.06;;;18.15;100.00
20077;BME280;12348;42.710;23.378;2023-07-24T02:01:50;95343.25;;;18.05;100.00
20077;BME280;12348;42.710;23.378;2023-07-24T02:04:16;95345.09;;;17.92;100.00
20077;BME280;12348;42.710;23.378;2023-07-24T02:06:43;95347.84;;;17.92;100.00
20077;BME280;12348;42.710;23.378;2023-07-24T02:09:10;95349.06;;;17.95;100.00
20077;BME280;12348;42.710;23.378;2023-07-24T02:11:37;95344.66;;;18.11;100.00
20077;BME280;12348;42.710;23.378;2023-07-24T02:14:04;95346.44;;;18.28;100.00
20077;BME280;12348;42.710;23.378;2023-07-24T02:16:31;95338.88;;;18.34;100.00
20077;BME280;12348;42.710;23.378;2023-07-24T02:18:59;95343.50;;;18.33;100.00
20077;BME280;12348;42.710;23.378;2023-07-24T02:21:26;95343.22;;;18.47;100.00
20077;BME280;12348;42.710;23.378;2023-07-24T02:23:53;95345.56;;;18.36;100.00
20077;BME280;12348;42.710;23.378;2023-07-24T02:26:19;95342.25;;;18.31;100.00
20077;BME280;12348;42.710;23.378;2023-07-24T02:28:46;95344.31;;;18.34;100.00
20077;BME280;12348;42.710;23.378;2023-07-24T02:31:13;95341.22;;;18.56;100.00
20077;BME280;12348;42.710;23.378;2023-07-24T02:33:40;95332.78;;;18.49;100.00
20077;BME280;12348;42.710;23.378;2023-07-24T02:36:08;95324.66;;;18.40;100.00
20077;BME280;12348;42.710;23.378;2023-07-24T02:38:35;95336.78;;;18.31;100.00
20077;BME280;12348;42.710;23.378;2023-07-24T02:41:02;95335.00;;;18.14;100.00
20077;BME280;12348;42.710;23.378;2023-07-24T02:43:29;95338.38;;;18.11;100.00
20077;BME280;12348;42.710;23.378;2023-07-24T02:46:00;95340.00;;;18.12;100.00
20077;BME280;12348;42.710;23.378;2023-07-24T02:48:28;95333.31;;;18.22;100.00
20077;BME280;12348;42.710;23.378;2023-07-24T02:50:54;95343.78;;;18.20;100.00
20077;BME280;12348;42.710;23.378;2023-07-24T02:53:23;95342.16;;;18.18;100.00
20077;BME280;12348;42.710;23.378;2023-07-24T02:55:50;95330.53;;;18.09;100.00
20077;BME280;12348;42.710;23.378;2023-07-24T02:58:17;95332.34;;;18.05;100.00
20077;BME280;12348;42.710;23.378;2023-07-24T03:00:43;95328.22;;;17.99;100.00
20077;BME280;12348;42.710;23.378;2023-07-24T03:03:10;95329.13;;;18.03;100.00
20077;BME280;12348;42.710;23.378;2023-07-24T03:05:37;95329.81;;;18.00;100.00
20077;BME280;12348;42.710;23.378;2023-07-24T03:08:04;95340.78;;;18.12;100.00
20077;BME280;12348;42.710;23.378;2023-07-24T03:10:32;95322.44;;;18.01;100.00
20077;BME280;12348;42.710;23.378;2023-07-24T03:12:59;95321.31;;;18.02;100.00
20077;BME280;12348;42.710;23.378;2023-07-24T03:15:25;95322.22;;;18.06;100.00
20077;BME280;12348;42.710;23.378;2023-07-24T03:17:52;95334.59;;;18.03;100.00
20077;BME280;12348;42.710;23.378;2023-07-24T03:20:20;95326.88;;;18.05;100.00
20077;BME280;12348;42.710;23.378;2023-07-24T03:22:47;95333.47;;;18.04;100.00
20077;BME280;12348;42.710;23.378;2023-07-24T03:25:14;95335.25;;;18.21;100.00
20077;BME280;12348;42.710;23.378;2023-07-24T03:27:42;95333.28;;;18.30;100.00
20077;BME280;12348;42.710;23.378;2023-07-24T03:30:10;95339.47;;;18.52;100.00
20077;BME280;12348;42.710;23.378;2023-07-24T03:32:37;95336.78;;;18.85;100.00
20077;BME280;12348;42.710;23.378;2023-07-24T03:35:04;95343.25;;;19.26;100.00
20077;BME280;12348;42.710;23.378;2023-07-24T03:37:31;95337.03;;;19.62;100.00
20077;BME280;12348;42.710;23.378;2023-07-24T03:39:58;95339.94;;;20.06;100.00
20077;BME280;12348;42.710;23.378;2023-07-24T03:42:27;95339.50;;;20.44;100.00
20077;BME280;12348;42.710;23.378;2023-07-24T03:44:56;95336.41;;;20.58;100.00
20077;BME280;12348;42.710;23.378;2023-07-24T03:47:23;95329.59;;;20.52;100.00
20077;BME280;12348;42.710;23.378;2023-07-24T03:49:50;95335.69;;;20.89;100.00
20077;BME280;12348;42.710;23.378;2023-07-24T03:52:17;95339.78;;;20.67;100.00
20077;BME280;12348;42.710;23.378;2023-07-24T03:54:44;95338.16;;;20.94;100.00
20077;BME280;12348;42.710;23.378;2023-07-24T03:57:11;95351.88;;;20.66;100.00
20077;BME280;12348;42.710;23.378;2023-07-24T03:59:38;95354.28;;;20.15;100.00
20077;BME280;12348;42.710;23.378;2023-07-24T04:02:07;95359.47;;;19.80;100.00
20077;BME280;12348;42.710;23.378;2023-07-24T04:04:34;95351.66;;;19.33;100.00
20077;BME280;12348;42.710;23.378;2023-07-24T04:07:00;95354.81;;;19.10;100.00
20077;BME280;12348;42.710;23.378;2023-07-24T04:09:27;95354.94;;;19.02;100.00
20077;BME280;12348;42.710;23.378;2023-07-24T04:11:54;95348.22;;;19.11;100.00
20077;BME280;12348;42.710;23.378;2023-07-24T04:14:21;95352.16;;;19.96;100.00
20077;BME280;12348;42.710;23.378;2023-07-24T04:16:48;95355.53;;;20.86;100.00
20077;BME280;12348;42.710;23.378;2023-07-24T04:19:16;95364.72;;;20.78;100.00
20077;BME280;12348;42.710;23.378;2023-07-24T04:21:43;95362.78;;;21.22;100.00
20077;BME280;12348;42.710;23.378;2023-07-24T04:24:09;95359.78;;;21.75;100.00
20077;BME280;12348;42.710;23.378;2023-07-24T04:26:36;95359.81;;;23.04;100.00
20077;BME280;12348;42.710;23.378;2023-07-24T04:29:05;95361.47;;;23.51;100.00
20077;BME280;12348;42.710;23.378;2023-07-24T04:31:32;95372.66;;;24.67;90.68
20077;BME280;12348;42.710;23.378;2023-07-24T04:33:58;95364.56;;;25.12;86.86
20077;BME280;12348;42.710;23.378;2023-07-24T04:36:27;95359.72;;;25.05;86.75
20077;BME280;12348;42.710;23.378;2023-07-24T04:38:53;95364.09;;;23.66;98.11
20077;BME280;12348;42.710;23.378;2023-07-24T04:41:20;95362.44;;;22.96;100.00
20077;BME280;12348;42.710;23.378;2023-07-24T04:43:47;95366.31;;;21.86;100.00
20077;BME280;12348;42.710;23.378;2023-07-24T04:46:14;95369.97;;;21.74;100.00
20077;BME280;12348;42.710;23.378;2023-07-24T04:48:40;95368.72;;;20.96;100.00
20077;BME280;12348;42.710;23.378;2023-07-24T04:51:07;95363.63;;;20.67;100.00
20077;BME280;12348;42.710;23.378;2023-07-24T04:53:35;95367.44;;;21.22;100.00
20077;BME280;12348;42.710;23.378;2023-07-24T04:56:02;95367.06;;;22.92;100.00
20077;BME280;12348;42.710;23.378;2023-07-24T04:58:29;95366.50;;;23.26;100.00
20077;BME280;12348;42.710;23.378;2023-07-24T05:00:56;95363.38;;;24.79;92.44
20077;BME280;12348;42.710;23.378;2023-07-24T05:03:22;95360.00;;;25.27;87.66
20077;BME280;12348;42.710;23.378;2023-07-24T05:05:54;95363.69;;;25.08;88.79
20077;BME280;12348;42.710;23.378;2023-07-24T05:08:21;95365.63;;;24.70;92.53
20077;BME280;12348;42.710;23.378;2023-07-24T05:10:53;95361.28;;;26.40;84.36
20077;BME280;12348;42.710;23.378;2023-07-24T05:13:20;95366.50;;;27.61;76.76
20077;BME280;12348;42.710;23.378;2023-07-24T05:15:47;95364.84;;;28.70;70.79
20077;BME280;12348;42.710;23.378;2023-07-24T05:18:14;95364.78;;;29.69;66.33
20077;BME280;12348;42.710;23.378;2023-07-24T05:20:43;95364.09;;;30.89;62.18
20077;BME280;12348;42.710;23.378;2023-07-24T05:23:11;95356.03;;;31.83;58.33
20077;BME280;12348;42.710;23.378;2023-07-24T05:25:38;95359.00;;;32.46;56.30
20077;BME280;12348;42.710;23.378;2023-07-24T05:28:06;95359.63;;;32.54;53.70
20077;BME280;12348;42.710;23.378;2023-07-24T05:30:32;95362.25;;;33.04;52.58
20077;BME280;12348;42.710;23.378;2023-07-24T05:32:59;95365.06;;;33.77;49.70
20077;BME280;12348;42.710;23.378;2023-07-24T05:35:26;95352.75;;;34.23;47.93
20077;BME280;12348;42.710;23.378;2023-07-24T05:37:53;95362.63;;;34.44;46.72
20077;BME280;12348;42.710;23.378;2023-07-24T05:40:20;95356.00;;;34.22;47.03
20077;BME280;12348;42.710;23.378;2023-07-24T05:42:46;95350.50;;;34.18;47.71
20077;BME280;12348;42.710;23.378;2023-07-24T05:45:15;95347.88;;;34.28;46.31
20077;BME280;12348;42.710;23.378;2023-07-24T05:47:41;95349.78;;;33.29;49.54
20077;BME280;12348;42.710;23.378;2023-07-24T05:50:09;95351.03;;;33.44;48.68
20077;BME280;12348;42.710;23.378;2023-07-24T05:52:38;95349.06;;;33.25;50.17
20077;BME280;12348;42.710;23.378;2023-07-24T05:55:06;95342.78;;;35.26;44.84
20077;BME280;12348;42.710;23.378;2023-07-24T05:57:33;95342.38;;;35.66;43.11
20077;BME280;12348;42.710;23.378;2023-07-24T05:59:59;95338.78;;;35.91;42.14
20077;BME280;12348;42.710;23.378;2023-07-24T06:02:30;95337.56;;;36.05;41.33
20077;BME280;12348;42.710;23.378;2023-07-24T06:04:57;95338.09;;;34.94;43.29
20077;BME280;12348;42.710;23.378;2023-07-24T06:07:24;95334.53;;;36.12;41.14
20077;BME280;12348;42.710;23.378;2023-07-24T06:09:51;95329.19;;;33.92;46.42
20077;BME280;12348;42.710;23.378;2023-07-24T06:12:18;95326.69;;;35.94;42.28
20077;BME280;12348;42.710;23.378;2023-07-24T06:14:45;95329.91;;;37.09;39.72
20077;BME280;12348;42.710;23.378;2023-07-24T06:17:11;95336.34;;;37.72;38.28
20077;BME280;12348;42.710;23.378;2023-07-24T06:19:39;95329.03;;;39.16;36.17
20077;BME280;12348;42.710;23.378;2023-07-24T06:22:07;95328.63;;;39.60;34.56
20077;BME280;12348;42.710;23.378;2023-07-24T06:24:34;95328.00;;;37.28;37.51
20077;BME280;12348;42.710;23.378;2023-07-24T06:27:00;95328.00;;;36.84;39.49
20077;BME280;12348;42.710;23.378;2023-07-24T06:29:27;95326.13;;;37.97;38.07
20077;BME280;12348;42.710;23.378;2023-07-24T06:31:54;95320.78;;;38.48;37.63
20077;BME280;12348;42.710;23.378;2023-07-24T06:34:21;95320.94;;;38.82;36.73
20077;BME280;12348;42.710;23.378;2023-07-24T06:36:49;95324.59;;;40.18;34.02
20077;BME280;12348;42.710;23.378;2023-07-24T06:39:16;95322.78;;;40.54;33.72
20077;BME280;12348;42.710;23.378;2023-07-24T06:41:43;95315.09;;;40.55;32.78
20077;BME280;12348;42.710;23.378;2023-07-24T06:44:10;95320.91;;;39.18;34.66
20077;BME280;12348;42.710;23.378;2023-07-24T06:46:37;95325.00;;;38.53;37.12
20077;BME280;12348;42.710;23.378;2023-07-24T06:49:04;95319.28;;;38.07;37.93
20077;BME280;12348;42.710;23.378;2023-07-24T06:51:31;95315.19;;;40.45;34.47
20077;BME280;12348;42.710;23.378;2023-07-24T06:53:59;95320.75;;;39.73;35.14
20077;BME280;12348;42.710;23.378;2023-07-24T06:56:25;95318.59;;;40.88;33.46
20077;BME280;12348;42.710;23.378;2023-07-24T06:58:52;95325.63;;;40.54;33.60
20077;BME280;12348;42.710;23.378;2023-07-24T07:01:19;95322.34;;;40.70;33.42
20077;BME280;12348;42.710;23.378;2023-07-24T07:03:46;95323.03;;;41.63;32.06
20077;BME280;12348;42.710;23.378;2023-07-24T07:06:13;95319.34;;;41.28;32.38
20077;BME280;12348;42.710;23.378;2023-07-24T07:08:40;95325.69;;;41.52;31.75
20077;BME280;12348;42.710;23.378;2023-07-24T07:11:08;95332.22;;;41.44;31.49
20077;BME280;12348;42.710;23.378;2023-07-24T07:13:35;95325.78;;;40.51;33.18
20077;BME280;12348;42.710;23.378;2023-07-24T07:16:01;95330.72;;;41.78;31.35
20077;BME280;12348;42.710;23.378;2023-07-24T07:18:29;95327.31;;;41.88;31.37
20077;BME280;12348;42.710;23.378;2023-07-24T07:20:55;95322.22;;;42.69;30.33
20077;BME280;12348;42.710;23.378;2023-07-24T07:23:22;95317.97;;;41.08;31.94
20077;BME280;12348;42.710;23.378;2023-07-24T07:25:50;95308.38;;;40.91;32.45
20077;BME280;12348;42.710;23.378;2023-07-24T07:28:19;95317.84;;;41.77;30.74
20077;BME280;12348;42.710;23.378;2023-07-24T07:30:46;95313.72;;;39.69;33.07
20077;BME280;12348;42.710;23.378;2023-07-24T07:33:12;95309.34;;;40.88;31.92
20077;BME280;12348;42.710;23.378;2023-07-24T07:35:39;95310.25;;;41.83;31.20
20077;BME280;12348;42.710;23.378;2023-07-24T07:38:06;95307.50;;;41.88;30.59
20077;BME280;12348;42.710;23.378;2023-07-24T07:40:33;95303.16;;;39.36;32.90
20077;BME280;12348;42.710;23.378;2023-07-24T07:43:00;95299.22;;;39.52;32.79
20077;BME280;12348;42.710;23.378;2023-07-24T07:45:28;95306.22;;;39.57;32.83
20077;BME280;12348;42.710;23.378;2023-07-24T07:47:55;95293.22;;;39.59;33.28
20077;BME280;12348;42.710;23.378;2023-07-24T07:50:22;95295.88;;;39.02;34.14
20077;BME280;12348;42.710;23.378;2023-07-24T07:52:49;95297.97;;;40.10;31.67
20077;BME280;12348;42.710;23.378;2023-07-24T07:55:17;95309.16;;;40.53;31.59
20077;BME280;12348;42.710;23.378;2023-07-24T07:57:44;95301.53;;;38.56;34.25
20077;BME280;12348;42.710;23.378;2023-07-24T08:00:12;95298.53;;;38.69;34.82
20077;BME280;12348;42.710;23.378;2023-07-24T08:02:40;95287.72;;;38.30;34.71
20077;BME280;12348;42.710;23.378;2023-07-24T08:05:07;95298.06;;;38.33;35.44
20077;BME280;12348;42.710;23.378;2023-07-24T08:07:34;95290.59;;;38.67;34.84
20077;BME280;12348;42.710;23.378;2023-07-24T08:10:01;95297.59;;;37.36;36.03
20077;BME280;12348;42.710;23.378;2023-07-24T08:12:28;95286.00;;;38.15;35.55
20077;BME280;12348;42.710;23.378;2023-07-24T08:14:56;95295.06;;;39.20;33.53
20077;BME280;12348;42.710;23.378;2023-07-24T08:17:23;95289.31;;;38.13;35.14
20077;BME280;12348;42.710;23.378;2023-07-24T08:19:51;95285.13;;;38.73;32.72
20077;BME280;12348;42.710;23.378;2023-07-24T08:22:17;95285.91;;;38.92;32.64
20077;BME280;12348;42.710;23.378;2023-07-24T08:24:45;95287.47;;;38.56;34.02
20077;BME280;12348;42.710;23.378;2023-07-24T08:27:12;95285.88;;;38.64;33.21
20077;BME280;12348;42.710;23.378;2023-07-24T08:29:39;95269.47;;;38.44;33.14
20077;BME280;12348;42.710;23.378;2023-07-24T08:32:06;95272.06;;;39.55;32.60
20077;BME280;12348;42.710;23.378;2023-07-24T08:34:33;95271.06;;;40.72;30.61
20077;BME280;12348;42.710;23.378;2023-07-24T08:37:01;95269.53;;;41.15;30.11
20077;BME280;12348;42.710;23.378;2023-07-24T08:39:28;95263.59;;;40.99;30.13
20077;BME280;12348;42.710;23.378;2023-07-24T08:41:54;95255.72;;;41.67;29.61
20077;BME280;12348;42.710;23.378;2023-07-24T08:44:21;95262.50;;;40.18;31.11
20077;BME280;12348;42.710;23.378;2023-07-24T08:46:51;95263.19;;;39.47;31.38
20077;BME280;12348;42.710;23.378;2023-07-24T08:49:18;95259.31;;;40.26;29.99
20077;BME280;12348;42.710;23.378;2023-07-24T08:51:45;95252.41;;;39.45;31.17
20077;BME280;12348;42.710;23.378;2023-07-24T08:54:14;95257.84;;;38.05;32.73
20077;BME280;12348;42.710;23.378;2023-07-24T08:56:42;95258.34;;;38.96;31.39
20077;BME280;12348;42.710;23.378;2023-07-24T08:59:12;95253.69;;;40.26;30.02
20077;BME280;12348;42.710;23.378;2023-07-24T09:01:40;95251.25;;;40.57;29.60
20077;BME280;12348;42.710;23.378;2023-07-24T09:04:07;95249.53;;;40.36;30.21
20077;BME280;12348;42.710;23.378;2023-07-24T09:06:34;95248.75;;;39.54;31.35
20077;BME280;12348;42.710;23.378;2023-07-24T09:09:01;95244.78;;;37.62;34.67
20077;BME280;12348;42.710;23.378;2023-07-24T09:11:29;95238.50;;;38.35;32.88
20077;BME280;12348;42.710;23.378;2023-07-24T09:13:56;95242.47;;;39.92;31.97
20077;BME280;12348;42.710;23.378;2023-07-24T09:16:24;95238.44;;;40.86;31.40
20077;BME280;12348;42.710;23.378;2023-07-24T09:18:52;95242.53;;;41.44;30.41
20077;BME280;12348;42.710;23.378;2023-07-24T09:21:27;95238.81;;;42.49;28.87
20077;BME280;12348;42.710;23.378;2023-07-24T09:23:54;95236.91;;;42.87;28.98
20077;BME280;12348;42.710;23.378;2023-07-24T09:26:21;95228.72;;;43.21;27.69
20077;BME280;12348;42.710;23.378;2023-07-24T09:28:53;95220.31;;;42.74;28.33
20077;BME280;12348;42.710;23.378;2023-07-24T09:31:20;95215.56;;;40.99;29.72
20077;BME280;12348;42.710;23.378;2023-07-24T09:33:47;95209.50;;;40.22;30.99
20077;BME280;12348;42.710;23.378;2023-07-24T09:36:14;95212.94;;;40.41;30.72
20077;BME280;12348;42.710;23.378;2023-07-24T09:38:41;95213.53;;;41.49;29.54
20077;BME280;12348;42.710;23.378;2023-07-24T09:41:08;95209.13;;;41.63;29.56
20077;BME280;12348;42.710;23.378;2023-07-24T09:43:35;95195.50;;;42.23;29.40
20077;BME280;12348;42.710;23.378;2023-07-24T09:46:04;95197.19;;;41.38;29.50
20077;BME280;12348;42.710;23.378;2023-07-24T09:48:32;95190.63;;;41.47;29.89
20077;BME280;12348;42.710;23.378;2023-07-24T09:51:00;95194.41;;;41.09;30.11
20077;BME280;12348;42.710;23.378;2023-07-24T09:53:32;95186.59;;;41.89;29.73
20077;BME280;12348;42.710;23.378;2023-07-24T09:56:03;95183.28;;;40.76;30.78
20077;BME280;12348;42.710;23.378;2023-07-24T09:58:32;95180.53;;;40.96;30.65
20077;BME280;12348;42.710;23.378;2023-07-24T10:01:00;95182.31;;;41.79;30.11
20077;BME280;12348;42.710;23.378;2023-07-24T10:03:30;95174.44;;;41.83;29.46
20077;BME280;12348;42.710;23.378;2023-07-24T10:05:57;95173.00;;;41.73;29.74
20077;BME280;12348;42.710;23.378;2023-07-24T10:08:24;95173.03;;;40.93;30.48
20077;BME280;12348;42.710;23.378;2023-07-24T10:10:51;95170.84;;;41.47;29.73
20077;BME280;12348;42.710;23.378;2023-07-24T10:13:20;95171.59;;;42.03;29.55
20077;BME280;12348;42.710;23.378;2023-07-24T10:15:48;95164.41;;;41.47;29.73
20077;BME280;12348;42.710;23.378;2023-07-24T10:18:16;95157.56;;;41.03;30.85
20077;BME280;12348;42.710;23.378;2023-07-24T10:20:44;95158.34;;;40.59;31.56
20077;BME280;12348;42.710;23.378;2023-07-24T10:23:17;95157.06;;;41.75;30.05
20077;BME280;12348;42.710;23.378;2023-07-24T10:25:46;95139.56;;;41.36;30.36
20077;BME280;12348;42.710;23.378;2023-07-24T10:28:13;95148.66;;;41.25;30.74
20077;BME280;12348;42.710;23.378;2023-07-24T10:30:42;95134.69;;;41.36;31.90
20077;BME280;12348;42.710;23.378;2023-07-24T10:33:10;95133.31;;;41.47;30.66
20077;BME280;12348;42.710;23.378;2023-07-24T10:35:39;95141.19;;;41.07;30.66
20077;BME280;12348;42.710;23.378;2023-07-24T10:38:07;95140.34;;;40.57;32.55
20077;BME280;12348;42.710;23.378;2023-07-24T10:40:34;95137.34;;;40.60;31.63
20077;BME280;12348;42.710;23.378;2023-07-24T10:43:04;95139.81;;;38.66;34.59
20077;BME280;12348;42.710;23.378;2023-07-24T10:45:39;95122.41;;;39.10;34.79
20077;BME280;12348;42.710;23.378;2023-07-24T10:48:06;95134.66;;;39.40;34.02
20077;BME280;12348;42.710;23.378;2023-07-24T10:50:37;95122.31;;;39.38;34.69
20077;BME280;12348;42.710;23.378;2023-07-24T10:53:04;95116.50;;;39.08;34.52
20077;BME280;12348;42.710;23.378;2023-07-24T10:55:32;95114.41;;;39.18;35.13
20077;BME280;12348;42.710;23.378;2023-07-24T10:57:59;95110.72;;;39.02;34.77
20077;BME280;12348;42.710;23.378;2023-07-24T11:00:26;95106.50;;;39.07;35.21
20077;BME280;12348;42.710;23.378;2023-07-24T11:02:53;95101.28;;;38.82;35.79
20077;BME280;12348;42.710;23.378;2023-07-24T11:05:21;95102.59;;;38.62;36.09
20077;BME280;12348;42.710;23.378;2023-07-24T11:07:48;95100.75;;;38.50;36.65
20077;BME280;12348;42.710;23.378;2023-07-24T11:10:15;95092.47;;;37.36;38.11
20077;BME280;12348;42.710;23.378;2023-07-24T11:12:44;95093.53;;;37.11;39.26
20077;BME280;12348;42.710;23.378;2023-07-24T11:15:12;95096.06;;;37.27;38.41
20077;BME280;12348;42.710;23.378;2023-07-24T11:17:41;95082.34;;;37.39;38.26
20077;BME280;12348;42.710;23.378;2023-07-24T11:20:09;95085.72;;;37.15;38.58
20077;BME280;12348;42.710;23.378;2023-07-24T11:22:38;95082.88;;;36.97;39.15
20077;BME280;12348;42.710;23.378;2023-07-24T11:25:06;95069.19;;;37.17;39.11
20077;BME280;12348;42.710;23.378;2023-07-24T11:27:37;95063.59;;;37.26;38.98
20077;BME280;12348;42.710;23.378;2023-07-24T11:30:06;95062.22;;;36.81;40.67
20077;BME280;12348;42.710;23.378;2023-07-24T11:32:33;95064.94;;;37.03;40.82
20077;BME280;12348;42.710;23.378;2023-07-24T11:35:01;95058.66;;;36.90;38.99
20077;BME280;12348;42.710;23.378;2023-07-24T11:37:28;95053.41;;;34.69;45.28
20077;BME280;12348;42.710;23.378;2023-07-24T11:39:56;95060.00;;;35.35;43.75
20077;BME280;12348;42.710;23.378;2023-07-24T11:42:26;95057.75;;;35.56;42.75
20077;BME280;12348;42.710;23.378;2023-07-24T11:44:53;95050.41;;;35.58;41.66
20077;BME280;12348;42.710;23.378;2023-07-24T11:47:22;95044.31;;;35.94;42.53
20077;BME280;12348;42.710;23.378;2023-07-24T11:49:59;95041.88;;;36.28;42.24
20077;BME280;12348;42.710;23.378;2023-07-24T11:52:26;95042.75;;;36.47;41.84
20077;BME280;12348;42.710;23.378;2023-07-24T11:55:04;95041.22;;;36.55;40.17
20077;BME280;12348;42.710;23.378;2023-07-24T11:57:30;95043.41;;;36.51;39.75
20077;BME280;12348;42.710;23.378;2023-07-24T11:59:57;95047.75;;;36.52;37.96
20077;BME280;12348;42.710;23.378;2023-07-24T12:02:27;95038.53;;;36.82;38.03
20077;BME280;12348;42.710;23.378;2023-07-24T12:04:55;95033.09;;;36.97;39.15
20077;BME280;12348;42.710;23.378;2023-07-24T12:07:28;95032.88;;;36.73;39.47
20077;BME280;12348;42.710;23.378;2023-07-24T12:09:55;95033.44;;;36.59;40.05
20077;BME280;12348;42.710;23.378;2023-07-24T12:12:21;95029.91;;;36.36;39.79
20077;BME280;12348;42.710;23.378;2023-07-24T12:14:48;95027.25;;;36.02;40.25
20077;BME280;12348;42.710;23.378;2023-07-24T12:17:18;95035.38;;;36.09;40.21
20077;BME280;12348;42.710;23.378;2023-07-24T12:19:46;95026.44;;;36.23;40.97
20077;BME280;12348;42.710;23.378;2023-07-24T12:22:14;95041.41;;;36.29;40.12
20077;BME280;12348;42.710;23.378;2023-07-24T12:24:41;95037.03;;;36.28;40.49
20077;BME280;12348;42.710;23.378;2023-07-24T12:27:08;95035.41;;;36.18;39.69
20077;BME280;12348;42.710;23.378;2023-07-24T12:29:34;95032.25;;;35.63;41.20
20077;BME280;12348;42.710;23.378;2023-07-24T12:32:01;95019.75;;;35.99;41.09
20077;BME280;12348;42.710;23.378;2023-07-24T12:34:28;95019.81;;;36.08;40.87
20077;BME280;12348;42.710;23.378;2023-07-24T12:36:56;95022.00;;;36.13;41.81
20077;BME280;12348;42.710;23.378;2023-07-24T12:39:23;95018.56;;;35.87;41.21
20077;BME280;12348;42.710;23.378;2023-07-24T12:41:50;95016.59;;;35.97;41.29
20077;BME280;12348;42.710;23.378;2023-07-24T12:44:16;95015.75;;;35.65;41.95
20077;BME280;12348;42.710;23.378;2023-07-24T12:46:43;95009.56;;;35.70;41.08